JAL2712 RJCM-RJCC
Flight info
| Callsign | JAL2712 |
|---|---|
| Flight time | 0h 34m |
| Altitude | 22000 |
| Route | OLDUS Y14 BOKSO V5 CHE |
| Aircraft | E170/M-SDE3GILORVW/S |
Departure
| Time | 2026-05-07 18:21 |
|---|---|
| Airport | Memanbetsu Airport (RJCM) |
Arrival
| Time | 2026-05-07 18:55 |
|---|---|
| Airport | New Chitose Airport (RJCC) |
| Time | Latitude | Longitude | Altitude | Speed | Heading |
|---|---|---|---|---|---|
| 2026-05-07 18:06 | 43.88154 | 144.15970 | 124 ft | 0 kts | 265° |
| 2026-05-07 18:14 | 43.88155 | 144.15984 | 127 ft | 4 kts | 266° |
| 2026-05-07 18:14 | 43.88156 | 144.16022 | 125 ft | 4 kts | 268° |
| 2026-05-07 18:15 | 43.88157 | 144.16059 | 123 ft | 4 kts | 266° |
| 2026-05-07 18:15 | 43.88161 | 144.16091 | 124 ft | 2 kts | 249° |
| 2026-05-07 18:15 | 43.88174 | 144.16119 | 123 ft | 4 kts | 223° |
| 2026-05-07 18:15 | 43.88184 | 144.16132 | 123 ft | 1 kts | 221° |
| 2026-05-07 18:16 | 43.88185 | 144.16133 | 123 ft | 0 kts | 221° |
| 2026-05-07 18:17 | 43.88184 | 144.16132 | 123 ft | 1 kts | 221° |
| 2026-05-07 18:17 | 43.88179 | 144.16128 | 124 ft | 1 kts | 204° |
| 2026-05-07 18:18 | 43.88146 | 144.16132 | 126 ft | 7 kts | 168° |
| 2026-05-07 18:18 | 43.88089 | 144.16148 | 126 ft | 10 kts | 168° |
| 2026-05-07 18:18 | 43.88000 | 144.16171 | 129 ft | 16 kts | 172° |
| 2026-05-07 18:18 | 43.87886 | 144.16191 | 130 ft | 17 kts | 173° |
| 2026-05-07 18:19 | 43.87753 | 144.16210 | 130 ft | 22 kts | 174° |
| 2026-05-07 18:19 | 43.87586 | 144.16232 | 135 ft | 26 kts | 174° |
| 2026-05-07 18:19 | 43.87406 | 144.16254 | 138 ft | 27 kts | 175° |
| 2026-05-07 18:19 | 43.87218 | 144.16277 | 141 ft | 27 kts | 174° |
| 2026-05-07 18:20 | 43.87027 | 144.16306 | 143 ft | 28 kts | 172° |
| 2026-05-07 18:20 | 43.86949 | 144.16433 | 146 ft | 16 kts | 85° |
| 2026-05-07 18:20 | 43.87019 | 144.16528 | 145 ft | 17 kts | 359° |
| 2026-05-07 18:20 | 43.87278 | 144.16496 | 142 ft | 79 kts | 355° |
| 2026-05-07 18:21 | 43.88135 | 144.16397 | 238 ft | 154 kts | 355° |
| 2026-05-07 18:21 | 43.89149 | 144.16303 | 1512 ft | 142 kts | 355° |
| 2026-05-07 18:21 | 43.90182 | 144.15715 | 2101 ft | 197 kts | 320° |
| 2026-05-07 18:21 | 43.90879 | 144.13805 | 2681 ft | 240 kts | 278° |
| 2026-05-07 18:22 | 43.90569 | 144.11630 | 4642 ft | 225 kts | 240° |
| 2026-05-07 18:22 | 43.89886 | 144.10502 | 5620 ft | 237 kts | 220° |
| 2026-05-07 18:22 | 43.88048 | 144.08668 | 7387 ft | 255 kts | 220° |
| 2026-05-07 18:22 | 43.86648 | 144.07125 | 8963 ft | 256 kts | 224° |
| 2026-05-07 18:23 | 43.85331 | 144.05467 | 10465 ft | 261 kts | 227° |
| 2026-05-07 18:23 | 43.84005 | 144.03604 | 11611 ft | 276 kts | 229° |
| 2026-05-07 18:23 | 43.82690 | 144.01659 | 12969 ft | 280 kts | 229° |
| 2026-05-07 18:23 | 43.81351 | 143.99619 | 14124 ft | 293 kts | 230° |
| 2026-05-07 18:24 | 43.80050 | 143.97350 | 14801 ft | 315 kts | 234° |
| 2026-05-07 18:24 | 43.78680 | 143.94819 | 15513 ft | 335 kts | 234° |
| 2026-05-07 18:24 | 43.77276 | 143.92196 | 16229 ft | 341 kts | 235° |
| 2026-05-07 18:24 | 43.75877 | 143.89583 | 16937 ft | 340 kts | 235° |
| 2026-05-07 18:25 | 43.74470 | 143.86956 | 17672 ft | 324 kts | 235° |
| 2026-05-07 18:25 | 43.73219 | 143.84630 | 18333 ft | 289 kts | 236° |
| 2026-05-07 18:25 | 43.72017 | 143.82382 | 18977 ft | 294 kts | 236° |
| 2026-05-07 18:25 | 43.70791 | 143.80096 | 19650 ft | 299 kts | 235° |
| 2026-05-07 18:26 | 43.69544 | 143.77778 | 20314 ft | 304 kts | 235° |
| 2026-05-07 18:26 | 43.68267 | 143.75405 | 21010 ft | 309 kts | 235° |
| 2026-05-07 18:26 | 43.66925 | 143.73029 | 21612 ft | 315 kts | 233° |
| 2026-05-07 18:26 | 43.65485 | 143.70655 | 21754 ft | 333 kts | 232° |
| 2026-05-07 18:27 | 43.63902 | 143.68215 | 21831 ft | 348 kts | 228° |
| 2026-05-07 18:27 | 43.62152 | 143.65905 | 21846 ft | 350 kts | 227° |
| 2026-05-07 18:27 | 43.60379 | 143.63610 | 21845 ft | 350 kts | 226° |
| 2026-05-07 18:27 | 43.59185 | 143.62082 | 21842 ft | 350 kts | 226° |
| 2026-05-07 18:28 | 43.57400 | 143.59802 | 21836 ft | 350 kts | 226° |
| 2026-05-07 18:28 | 43.55603 | 143.57510 | 21831 ft | 350 kts | 226° |
| 2026-05-07 18:28 | 43.53827 | 143.55244 | 21833 ft | 350 kts | 226° |
| 2026-05-07 18:28 | 43.52023 | 143.52944 | 21840 ft | 350 kts | 226° |
| 2026-05-07 18:29 | 43.50247 | 143.50683 | 21813 ft | 350 kts | 226° |
| 2026-05-07 18:29 | 43.48461 | 143.48411 | 21835 ft | 350 kts | 226° |
| 2026-05-07 18:29 | 43.46669 | 143.46129 | 21806 ft | 349 kts | 226° |
| 2026-05-07 18:29 | 43.44940 | 143.43823 | 21829 ft | 348 kts | 230° |
| 2026-05-07 18:30 | 43.43363 | 143.41286 | 21825 ft | 346 kts | 238° |
| 2026-05-07 18:30 | 43.42459 | 143.38236 | 21817 ft | 345 kts | 252° |
| 2026-05-07 18:30 | 43.41873 | 143.35051 | 21814 ft | 345 kts | 255° |
| 2026-05-07 18:30 | 43.41348 | 143.31842 | 21826 ft | 347 kts | 255° |
| 2026-05-07 18:31 | 43.40832 | 143.28579 | 21795 ft | 347 kts | 255° |
| 2026-05-07 18:31 | 43.40320 | 143.25362 | 21782 ft | 347 kts | 255° |
| 2026-05-07 18:31 | 43.39653 | 143.22160 | 21785 ft | 345 kts | 251° |
| 2026-05-07 18:31 | 43.38949 | 143.19018 | 21808 ft | 345 kts | 251° |
| 2026-05-07 18:32 | 43.38224 | 143.15889 | 21790 ft | 345 kts | 251° |
| 2026-05-07 18:32 | 43.37493 | 143.12729 | 21769 ft | 345 kts | 251° |
| 2026-05-07 18:32 | 43.36765 | 143.09605 | 21778 ft | 346 kts | 251° |
| 2026-05-07 18:32 | 43.36038 | 143.06484 | 21778 ft | 345 kts | 251° |
| 2026-05-07 18:33 | 43.35302 | 143.03326 | 21784 ft | 345 kts | 251° |
| 2026-05-07 18:33 | 43.34576 | 143.00212 | 21798 ft | 343 kts | 251° |
| 2026-05-07 18:33 | 43.33837 | 142.97043 | 21835 ft | 345 kts | 251° |
| 2026-05-07 18:33 | 43.33110 | 142.93928 | 21823 ft | 345 kts | 251° |
| 2026-05-07 18:34 | 43.32382 | 142.90822 | 21803 ft | 345 kts | 251° |
| 2026-05-07 18:34 | 43.31641 | 142.87659 | 21817 ft | 345 kts | 251° |
| 2026-05-07 18:34 | 43.30911 | 142.84550 | 21813 ft | 345 kts | 251° |
| 2026-05-07 18:34 | 43.30173 | 142.81411 | 21798 ft | 344 kts | 251° |
| 2026-05-07 18:35 | 43.29444 | 142.78311 | 21814 ft | 344 kts | 251° |
| 2026-05-07 18:35 | 43.28706 | 142.75179 | 21806 ft | 344 kts | 250° |
| 2026-05-07 18:35 | 43.27968 | 142.72052 | 21824 ft | 344 kts | 250° |
| 2026-05-07 18:35 | 43.27228 | 142.68921 | 21815 ft | 344 kts | 250° |
| 2026-05-07 18:36 | 43.26488 | 142.65788 | 21809 ft | 343 kts | 250° |
| 2026-05-07 18:36 | 43.25754 | 142.62694 | 21838 ft | 344 kts | 250° |
| 2026-05-07 18:36 | 43.25017 | 142.59585 | 21547 ft | 343 kts | 250° |
| 2026-05-07 18:36 | 43.24292 | 142.56530 | 21215 ft | 324 kts | 250° |
| 2026-05-07 18:37 | 43.23612 | 142.53674 | 20805 ft | 311 kts | 250° |
| 2026-05-07 18:37 | 43.22955 | 142.50915 | 20370 ft | 301 kts | 250° |
| 2026-05-07 18:37 | 43.22308 | 142.48204 | 19918 ft | 296 kts | 250° |
| 2026-05-07 18:37 | 43.21664 | 142.45508 | 19306 ft | 294 kts | 250° |
| 2026-05-07 18:38 | 43.21024 | 142.42860 | 18540 ft | 300 kts | 252° |
| 2026-05-07 18:38 | 43.20345 | 142.40009 | 17935 ft | 325 kts | 252° |
| 2026-05-07 18:38 | 43.19637 | 142.37031 | 17309 ft | 326 kts | 252° |
| 2026-05-07 18:38 | 43.18932 | 142.34092 | 16695 ft | 326 kts | 252° |
| 2026-05-07 18:39 | 43.18217 | 142.31121 | 16080 ft | 325 kts | 252° |
| 2026-05-07 18:39 | 43.17514 | 142.28199 | 15464 ft | 325 kts | 252° |
| 2026-05-07 18:39 | 43.16810 | 142.25278 | 14846 ft | 324 kts | 252° |
| 2026-05-07 18:39 | 43.16099 | 142.22329 | 14231 ft | 323 kts | 252° |
| 2026-05-07 18:40 | 43.15400 | 142.19434 | 13623 ft | 322 kts | 252° |
| 2026-05-07 18:40 | 43.14782 | 142.16523 | 12963 ft | 320 kts | 262° |
| 2026-05-07 18:40 | 43.14947 | 142.13490 | 12377 ft | 317 kts | 284° |
| 2026-05-07 18:40 | 43.15578 | 142.10686 | 12173 ft | 303 kts | 288° |
| 2026-05-07 18:41 | 43.16353 | 142.08051 | 11946 ft | 291 kts | 301° |
| 2026-05-07 18:41 | 43.17656 | 142.06037 | 11668 ft | 283 kts | 316° |
| 2026-05-07 18:41 | 43.19137 | 142.04253 | 11250 ft | 281 kts | 319° |
| 2026-05-07 18:41 | 43.20706 | 142.02700 | 10826 ft | 280 kts | 328° |
| 2026-05-07 18:42 | 43.22414 | 142.01411 | 10426 ft | 278 kts | 332° |
| 2026-05-07 18:42 | 43.24128 | 142.00225 | 10026 ft | 276 kts | 333° |
| 2026-05-07 18:42 | 43.25893 | 141.99169 | 9599 ft | 276 kts | 338° |
| 2026-05-07 18:42 | 43.27609 | 141.98092 | 9178 ft | 272 kts | 322° |
| 2026-05-07 18:43 | 43.28815 | 141.96108 | 8760 ft | 269 kts | 297° |
| 2026-05-07 18:43 | 43.29519 | 141.93770 | 8420 ft | 264 kts | 285° |
| 2026-05-07 18:43 | 43.29902 | 141.91348 | 8206 ft | 255 kts | 275° |
| 2026-05-07 18:43 | 43.29809 | 141.88945 | 7849 ft | 253 kts | 263° |
| 2026-05-07 18:44 | 43.29570 | 141.86569 | 7511 ft | 252 kts | 262° |
| 2026-05-07 18:44 | 43.29296 | 141.84208 | 7228 ft | 251 kts | 261° |
| 2026-05-07 18:44 | 43.29002 | 141.81839 | 6909 ft | 249 kts | 260° |
| 2026-05-07 18:44 | 43.28708 | 141.79519 | 6605 ft | 248 kts | 259° |
| 2026-05-07 18:45 | 43.28405 | 141.77209 | 6285 ft | 247 kts | 261° |
| 2026-05-07 18:45 | 43.28106 | 141.74888 | 6003 ft | 246 kts | 260° |
| 2026-05-07 18:45 | 43.27641 | 141.72669 | 5670 ft | 246 kts | 239° |
| 2026-05-07 18:45 | 43.26413 | 141.71050 | 5360 ft | 246 kts | 208° |
| 2026-05-07 18:46 | 43.24803 | 141.70308 | 5060 ft | 246 kts | 195° |
| 2026-05-07 18:46 | 43.23132 | 141.69754 | 4763 ft | 245 kts | 195° |
| 2026-05-07 18:46 | 43.21479 | 141.69248 | 4506 ft | 244 kts | 194° |
| 2026-05-07 18:46 | 43.19804 | 141.68746 | 4201 ft | 244 kts | 193° |
| 2026-05-07 18:47 | 43.18158 | 141.68256 | 3958 ft | 243 kts | 193° |
| 2026-05-07 18:47 | 43.16511 | 141.67774 | 3768 ft | 242 kts | 193° |
| 2026-05-07 18:47 | 43.14858 | 141.67296 | 3557 ft | 241 kts | 193° |
| 2026-05-07 18:47 | 43.13223 | 141.66815 | 3356 ft | 240 kts | 194° |
| 2026-05-07 18:48 | 43.11602 | 141.66338 | 3063 ft | 240 kts | 193° |
| 2026-05-07 18:48 | 43.09976 | 141.65861 | 3009 ft | 233 kts | 193° |
| 2026-05-07 18:48 | 43.08437 | 141.65417 | 3081 ft | 221 kts | 193° |
| 2026-05-07 18:48 | 43.06974 | 141.64996 | 3106 ft | 211 kts | 193° |
| 2026-05-07 18:49 | 43.05558 | 141.64592 | 3079 ft | 201 kts | 194° |
| 2026-05-07 18:49 | 43.04221 | 141.64257 | 3035 ft | 192 kts | 186° |
| 2026-05-07 18:49 | 43.02891 | 141.64365 | 2793 ft | 190 kts | 174° |
| 2026-05-07 18:49 | 43.01603 | 141.64619 | 2786 ft | 183 kts | 173° |
| 2026-05-07 18:50 | 43.00358 | 141.64853 | 2746 ft | 175 kts | 174° |
| 2026-05-07 18:50 | 42.99178 | 141.65075 | 2674 ft | 169 kts | 175° |
| 2026-05-07 18:50 | 42.98014 | 141.65302 | 2547 ft | 171 kts | 174° |
| 2026-05-07 18:50 | 42.96850 | 141.65501 | 2355 ft | 168 kts | 174° |
| 2026-05-07 18:51 | 42.95673 | 141.65696 | 2157 ft | 176 kts | 173° |
| 2026-05-07 18:51 | 42.94383 | 141.65933 | 2280 ft | 188 kts | 174° |
| 2026-05-07 18:51 | 42.93117 | 141.66170 | 2197 ft | 177 kts | 174° |
| 2026-05-07 18:51 | 42.91917 | 141.66399 | 2132 ft | 172 kts | 173° |
| 2026-05-07 18:52 | 42.90728 | 141.66626 | 2070 ft | 170 kts | 175° |
| 2026-05-07 18:52 | 42.89582 | 141.66843 | 2099 ft | 166 kts | 174° |
| 2026-05-07 18:52 | 42.88448 | 141.67053 | 2051 ft | 166 kts | 174° |
| 2026-05-07 18:52 | 42.87333 | 141.67255 | 2035 ft | 156 kts | 175° |
| 2026-05-07 18:53 | 42.86260 | 141.67445 | 2050 ft | 155 kts | 174° |
| 2026-05-07 18:53 | 42.85180 | 141.67642 | 2113 ft | 171 kts | 173° |
| 2026-05-07 18:53 | 42.83990 | 141.67898 | 1948 ft | 175 kts | 172° |
| 2026-05-07 18:53 | 42.82804 | 141.68142 | 1611 ft | 172 kts | 175° |
| 2026-05-07 18:54 | 42.81617 | 141.68292 | 1448 ft | 164 kts | 177° |
| 2026-05-07 18:54 | 42.80538 | 141.68497 | 1077 ft | 155 kts | 170° |
| 2026-05-07 18:54 | 42.79490 | 141.68727 | 600 ft | 153 kts | 174° |
| 2026-05-07 18:54 | 42.78440 | 141.68878 | 164 ft | 146 kts | 173° |
| 2026-05-07 18:55 | 42.77530 | 141.69054 | 70 ft | 116 kts | 174° |
| 2026-05-07 18:55 | 42.76931 | 141.69125 | 63 ft | 50 kts | 186° |
| 2026-05-07 18:55 | 42.76771 | 141.69090 | 64 ft | 17 kts | 191° |
| 2026-05-07 18:55 | 42.76695 | 141.69002 | 62 ft | 14 kts | 281° |
| 2026-05-07 18:56 | 42.76757 | 141.68951 | 62 ft | 12 kts | 349° |
| 2026-05-07 18:56 | 42.76866 | 141.68929 | 63 ft | 23 kts | 352° |
| 2026-05-07 18:56 | 42.77053 | 141.68895 | 63 ft | 29 kts | 353° |
| 2026-05-07 18:56 | 42.77256 | 141.68857 | 62 ft | 31 kts | 352° |
| 2026-05-07 18:57 | 42.77448 | 141.68815 | 61 ft | 23 kts | 335° |
| 2026-05-07 18:57 | 42.77558 | 141.68653 | 63 ft | 25 kts | 321° |
| 2026-05-07 18:57 | 42.77728 | 141.68589 | 62 ft | 27 kts | 352° |
| 2026-05-07 18:57 | 42.77921 | 141.68545 | 63 ft | 29 kts | 340° |
| 2026-05-07 18:58 | 42.77992 | 141.68420 | 66 ft | 7 kts | 269° |
| 2026-05-07 18:58 | 42.77992 | 141.68410 | 66 ft | 0 kts | 260° |